createdAt,value
2022-10-28T00:01:32.812Z,4.82
2022-10-28T00:04:34.787Z,4.77
2022-10-28T00:07:36.537Z,4.74
2022-10-28T00:10:38.159Z,4.71
2022-10-28T00:13:40.999Z,4.69
2022-10-28T00:16:42.905Z,4.69
2022-10-28T00:19:44.710Z,4.67
2022-10-28T00:22:46.618Z,4.65
2022-10-28T00:25:48.344Z,4.63
2022-10-28T00:28:52.943Z,4.60
2022-10-28T00:31:55.897Z,4.57
2022-10-28T00:34:58.145Z,4.52
2022-10-28T00:37:59.954Z,4.43
2022-10-28T00:41:01.695Z,4.36
2022-10-28T00:44:42.353Z,4.34
2022-10-28T00:47:52.706Z,4.34
2022-10-28T00:50:55.280Z,4.33
2022-10-28T00:53:57.375Z,4.34
2022-10-28T00:57:00.505Z,4.34
2022-10-28T01:00:04.729Z,4.32
2022-10-28T01:03:06.821Z,4.30
2022-10-28T01:06:08.842Z,4.28
2022-10-28T01:09:10.631Z,4.25
2022-10-28T01:12:40.058Z,4.22
2022-10-28T01:16:16.926Z,4.17
2022-10-28T01:19:40.246Z,4.13
2022-10-28T01:22:54.269Z,4.09
2022-10-28T01:26:33.983Z,4.03
2022-10-28T01:30:11.198Z,3.88
2022-10-28T01:33:34.915Z,3.73
2022-10-28T01:36:51.714Z,3.62
2022-10-28T01:40:00.014Z,3.53
2022-10-28T01:43:46.341Z,3.46
2022-10-28T01:46:54.815Z,3.42
2022-10-28T01:50:04.718Z,3.42
2022-10-28T01:53:10.844Z,3.42
2022-10-28T01:56:16.657Z,3.42
2022-10-28T01:59:22.790Z,3.44
2022-10-28T02:02:25.109Z,3.46
2022-10-28T02:05:41.077Z,3.45
2022-10-28T02:08:42.888Z,3.44
2022-10-28T02:11:53.778Z,3.45
2022-10-28T02:15:16.985Z,3.46
2022-10-28T02:18:40.276Z,3.44
2022-10-28T02:21:57.495Z,3.41
2022-10-28T02:25:22.450Z,3.39
2022-10-28T02:28:45.060Z,3.33
2022-10-28T02:31:54.562Z,3.30
2022-10-28T02:34:58.878Z,3.28
2022-10-28T02:38:03.747Z,3.23
2022-10-28T02:41:17.732Z,3.20
2022-10-28T02:44:25.270Z,3.12
2022-10-28T02:47:29.247Z,3.07
2022-10-28T02:50:34.509Z,3.04
2022-10-28T02:53:54.888Z,3.04
2022-10-28T02:57:01.949Z,3.05
2022-10-28T03:00:10.319Z,3.06
2022-10-28T03:03:12.889Z,3.07
2022-10-28T03:06:14.691Z,3.06
2022-10-28T03:09:16.934Z,3.06
2022-10-28T03:12:18.722Z,3.09
2022-10-28T03:15:20.663Z,3.11
2022-10-28T03:18:22.443Z,3.12
2022-10-28T03:21:24.232Z,3.08
2022-10-28T03:24:27.266Z,3.10
2022-10-28T03:27:29.611Z,3.14
2022-10-28T03:30:31.339Z,3.11
2022-10-28T03:33:33.033Z,3.06
2022-10-28T03:36:34.822Z,3.04
2022-10-28T03:39:36.417Z,3.03
2022-10-28T03:42:41.366Z,3.03
2022-10-28T03:45:43.417Z,3.02
2022-10-28T03:48:45.168Z,3.01
2022-10-28T03:51:46.801Z,3.00
2022-10-28T03:54:48.598Z,3.02
2022-10-28T03:57:50.240Z,3.07
2022-10-28T04:00:53.035Z,3.08
2022-10-28T04:03:54.723Z,3.06
2022-10-28T04:06:56.354Z,3.02
2022-10-28T04:09:58.224Z,3.01
2022-10-28T04:13:04.231Z,3.05
2022-10-28T04:16:06.455Z,3.09
2022-10-28T04:19:08.496Z,3.12
2022-10-28T04:22:10.290Z,3.17
2022-10-28T04:25:12.135Z,3.20
2022-10-28T04:28:14.296Z,3.08
2022-10-28T04:31:16.186Z,2.75
2022-10-28T04:34:17.920Z,2.54
2022-10-28T04:37:20.763Z,2.48
2022-10-28T04:40:22.618Z,2.52
2022-10-28T04:43:24.394Z,2.54
2022-10-28T04:46:26.273Z,2.56
2022-10-28T04:49:28.203Z,2.59
2022-10-28T04:52:30.158Z,2.60
2022-10-28T04:55:32.047Z,2.57
2022-10-28T04:58:33.768Z,2.56
2022-10-28T05:01:35.553Z,2.58
2022-10-28T05:04:37.331Z,2.61
2022-10-28T05:07:39.099Z,2.66
2022-10-28T05:10:40.845Z,2.79
2022-10-28T05:13:42.652Z,2.77
2022-10-28T05:16:44.421Z,2.72
2022-10-28T05:19:46.215Z,2.77
2022-10-28T05:22:50.391Z,2.76
2022-10-28T05:25:52.614Z,2.68
2022-10-28T05:28:54.468Z,2.57
2022-10-28T05:31:56.329Z,2.63
2022-10-28T05:34:58.221Z,2.84
2022-10-28T05:38:00.128Z,3.01
2022-10-28T05:41:02.069Z,3.14
2022-10-28T05:44:03.971Z,3.25
2022-10-28T05:47:05.719Z,3.30
2022-10-28T05:50:07.746Z,3.34
2022-10-28T05:53:09.467Z,3.36
2022-10-28T05:56:11.146Z,3.37
2022-10-28T05:59:12.862Z,3.40
2022-10-28T06:02:15.193Z,3.42
2022-10-28T06:05:17.181Z,3.47
2022-10-28T06:08:19.079Z,3.59
2022-10-28T06:11:19.178Z,3.71
2022-10-28T06:14:20.736Z,3.84
2022-10-28T06:17:22.670Z,3.92
2022-10-28T06:20:24.486Z,3.98
2022-10-28T06:23:27.687Z,4.02
2022-10-28T06:26:29.356Z,4.05
2022-10-28T06:29:32.305Z,4.12
2022-10-28T06:32:33.953Z,4.23
2022-10-28T06:35:35.573Z,4.38
2022-10-28T06:38:37.393Z,4.56
2022-10-28T06:41:39.015Z,4.77
2022-10-28T06:44:40.683Z,4.94
2022-10-28T06:47:43.779Z,5.10
2022-10-28T06:50:45.644Z,5.28
2022-10-28T06:53:50.672Z,5.45
2022-10-28T06:56:52.317Z,5.63
2022-10-28T06:59:53.960Z,5.78
2022-10-28T07:02:56.995Z,5.93
2022-10-28T07:05:59.471Z,6.05
2022-10-28T07:09:01.242Z,6.18
2022-10-28T07:12:05.023Z,6.35
2022-10-28T07:15:08.149Z,6.56
2022-10-28T07:18:10.027Z,6.82
2022-10-28T07:21:14.044Z,7.06
2022-10-28T07:24:15.694Z,7.39
2022-10-28T07:27:17.420Z,7.76
2022-10-28T07:30:19.004Z,8.04
2022-10-28T07:33:20.930Z,8.32
2022-10-28T07:36:22.672Z,8.67
2022-10-28T07:39:24.688Z,9.01
2022-10-28T07:42:26.407Z,9.34
2022-10-28T07:45:28.332Z,9.56
2022-10-28T07:48:29.971Z,9.72
2022-10-28T07:51:31.801Z,9.80
2022-10-28T07:54:33.392Z,9.81
2022-10-28T07:57:35.345Z,9.94
2022-10-28T08:00:37.180Z,10.06
2022-10-28T08:03:39.346Z,10.25
2022-10-28T08:06:41.282Z,10.45
2022-10-28T08:09:43.049Z,10.77
2022-10-28T08:12:46.308Z,11.08
2022-10-28T08:15:55.127Z,11.30
2022-10-28T08:19:01.134Z,11.53
2022-10-28T08:22:06.881Z,11.92
2022-10-28T08:25:09.286Z,12.60
2022-10-28T08:28:11.038Z,13.27
2022-10-28T08:31:12.714Z,13.92
2022-10-28T08:34:14.511Z,14.71
2022-10-28T08:37:16.419Z,15.52
2022-10-28T08:40:20.882Z,16.34
2022-10-28T08:44:00.887Z,17.07
2022-10-28T08:47:14.792Z,17.79
2022-10-28T08:50:18.424Z,18.48
2022-10-28T08:53:26.056Z,19.09
2022-10-28T08:56:32.043Z,19.79
2022-10-28T08:59:39.371Z,20.29
2022-10-28T09:03:10.023Z,20.67
2022-10-28T09:06:11.826Z,21.12
2022-10-28T09:09:19.656Z,21.56
2022-10-28T09:12:34.340Z,22.42
2022-10-28T09:15:56.022Z,23.03
2022-10-28T09:18:59.233Z,23.03
2022-10-28T09:22:28.714Z,22.96
2022-10-28T09:25:48.716Z,23.04
2022-10-28T09:29:21.177Z,22.90
2022-10-28T09:32:43.854Z,22.93
2022-10-28T09:35:47.458Z,23.25
2022-10-28T09:38:51.879Z,23.74
2022-10-28T09:41:53.971Z,24.28
2022-10-28T09:44:59.888Z,24.65
2022-10-28T09:48:05.735Z,24.91
2022-10-28T09:51:27.958Z,25.46
2022-10-28T09:54:35.439Z,25.99
2022-10-28T09:57:37.096Z,26.13
2022-10-28T10:00:39.661Z,26.44
2022-10-28T10:03:41.908Z,26.49
2022-10-28T10:06:48.550Z,26.66
2022-10-28T10:09:50.498Z,26.83
2022-10-28T10:12:55.958Z,26.98
2022-10-28T10:16:02.536Z,26.93
2022-10-28T10:19:06.649Z,26.15
2022-10-28T10:22:08.359Z,25.22
2022-10-28T10:25:18.971Z,24.81
2022-10-28T10:28:21.538Z,25.10
2022-10-28T10:31:26.182Z,25.41
2022-10-28T10:34:30.143Z,25.80
2022-10-28T10:37:34.758Z,26.22
2022-10-28T10:40:52.907Z,26.17
2022-10-28T10:43:54.607Z,26.46
2022-10-28T10:47:16.534Z,26.86
2022-10-28T10:50:23.170Z,27.28
2022-10-28T10:53:28.236Z,27.38
2022-10-28T10:56:31.606Z,27.46
2022-10-28T10:59:34.994Z,27.45
2022-10-28T11:02:39.810Z,27.41
2022-10-28T11:05:55.146Z,27.51
2022-10-28T11:09:17.611Z,27.83
2022-10-28T11:12:31.967Z,27.80
2022-10-28T11:15:33.695Z,27.29
2022-10-28T11:18:43.959Z,26.95
2022-10-28T11:21:55.388Z,26.16
2022-10-28T11:25:15.306Z,25.25
2022-10-28T11:28:30.027Z,24.70
2022-10-28T11:31:48.266Z,23.84
2022-10-28T11:35:20.588Z,23.12
2022-10-28T11:38:45.863Z,22.42
2022-10-28T11:42:00.852Z,22.09
2022-10-28T11:45:26.694Z,21.80
2022-10-28T11:48:47.100Z,21.58
2022-10-28T11:52:00.528Z,21.55
2022-10-28T11:55:31.459Z,21.53
2022-10-28T11:58:53.247Z,21.36
2022-10-28T12:02:36.860Z,21.10
2022-10-28T12:05:51.216Z,20.94
2022-10-28T12:09:01.625Z,20.94
2022-10-28T12:12:06.003Z,21.05
2022-10-28T12:15:39.154Z,21.04
2022-10-28T12:19:16.356Z,20.95
2022-10-28T12:22:34.152Z,20.97
2022-10-28T12:25:36.885Z,21.04
2022-10-28T12:28:43.990Z,21.14
2022-10-28T12:31:49.199Z,21.20
2022-10-28T12:34:56.434Z,21.14
2022-10-28T12:38:02.792Z,21.16
2022-10-28T12:41:16.215Z,21.15
2022-10-28T12:44:20.448Z,21.13
2022-10-28T12:47:25.754Z,21.04
2022-10-28T12:50:48.798Z,20.96
2022-10-28T12:54:17.273Z,20.91
2022-10-28T12:57:21.411Z,20.92
2022-10-28T13:00:28.702Z,20.97
2022-10-28T13:03:30.464Z,21.06
2022-10-28T13:09:52.447Z,21.20
2022-10-28T13:13:14.566Z,21.37
2022-10-28T13:16:53.651Z,21.44
2022-10-28T13:20:03.296Z,21.53
2022-10-28T13:23:33.361Z,21.75
2022-10-28T13:26:36.825Z,21.85
2022-10-28T13:29:40.551Z,21.89
2022-10-28T13:32:42.689Z,21.98
2022-10-28T13:35:44.630Z,22.03
2022-10-28T13:39:00.806Z,21.96
2022-10-28T13:42:19.581Z,21.77
2022-10-28T13:45:44.559Z,21.58
2022-10-28T13:48:46.793Z,21.44
2022-10-28T13:51:51.342Z,21.28
2022-10-28T13:54:55.149Z,21.11
2022-10-28T13:58:23.587Z,20.99
2022-10-28T14:01:56.529Z,20.86
2022-10-28T14:05:11.316Z,20.79
2022-10-28T14:08:28.458Z,20.75
2022-10-28T14:11:32.642Z,20.72
2022-10-28T14:14:34.377Z,20.74
2022-10-28T14:17:41.188Z,20.72
2022-10-28T14:20:48.763Z,20.68
2022-10-28T14:24:07.460Z,20.62
2022-10-28T14:27:09.430Z,20.50
2022-10-28T14:30:16.717Z,20.37
2022-10-28T14:33:22.203Z,20.24
2022-10-28T14:36:53.327Z,20.17
2022-10-28T14:40:07.816Z,20.13
2022-10-28T14:43:30.620Z,20.08
2022-10-28T14:46:39.454Z,19.99
2022-10-28T14:49:42.051Z,19.90
2022-10-28T14:52:44.382Z,19.82
2022-10-28T14:55:47.837Z,19.76
2022-10-28T14:58:50.364Z,19.67
2022-10-28T15:02:17.500Z,19.60
2022-10-28T15:05:21.348Z,19.43
2022-10-28T15:08:24.748Z,19.23
2022-10-28T15:11:26.462Z,19.02
2022-10-28T15:14:33.569Z,18.71
2022-10-28T15:17:42.491Z,18.40
2022-10-28T15:20:44.142Z,18.19
2022-10-28T15:23:47.479Z,18.05
2022-10-28T15:26:54.502Z,17.82
2022-10-28T15:29:56.338Z,17.64
2022-10-28T15:33:26.984Z,17.42
2022-10-28T15:36:28.799Z,17.16
2022-10-28T15:39:30.491Z,16.96
2022-10-28T15:43:01.163Z,16.79
2022-10-28T15:46:10.919Z,16.60
2022-10-28T15:49:37.713Z,16.43
2022-10-28T15:52:52.403Z,16.22
2022-10-28T15:56:17.158Z,16.04
2022-10-28T15:59:23.808Z,15.84
2022-10-28T16:02:42.417Z,15.67
2022-10-28T16:05:45.434Z,15.45
2022-10-28T16:08:47.792Z,15.30
2022-10-28T16:11:51.865Z,15.19
2022-10-28T16:14:55.377Z,15.04
2022-10-28T16:17:57.397Z,14.92
2022-10-28T16:20:59.854Z,14.81
2022-10-28T16:24:02.937Z,14.69
2022-10-28T16:27:21.135Z,14.59
2022-10-28T16:33:37.355Z,14.46
2022-10-28T16:36:39.049Z,14.39
2022-10-28T16:39:40.658Z,14.29
2022-10-28T16:42:43.161Z,14.15
2022-10-28T16:45:44.740Z,14.00
2022-10-28T16:48:46.716Z,13.84
2022-10-28T16:51:48.383Z,13.68
2022-10-28T16:54:51.068Z,13.49
2022-10-28T16:57:52.994Z,13.29
2022-10-28T17:00:55.891Z,13.26
2022-10-28T17:03:57.533Z,13.21
2022-10-28T17:06:59.308Z,13.08
2022-10-28T17:10:00.995Z,12.95
2022-10-28T17:13:03.305Z,12.66
2022-10-28T17:16:05.328Z,12.53
2022-10-28T17:19:06.980Z,12.53
2022-10-28T17:22:10.291Z,12.52
2022-10-28T17:25:12.427Z,12.54
2022-10-28T17:28:14.017Z,12.52
2022-10-28T17:31:19.217Z,12.48
2022-10-28T17:34:24.036Z,12.36
2022-10-28T17:37:25.774Z,12.21
2022-10-28T17:40:27.457Z,12.10
2022-10-28T17:43:29.079Z,12.02
2022-10-28T17:46:31.486Z,11.97
2022-10-28T17:49:34.395Z,11.89
2022-10-28T17:52:38.523Z,11.80
2022-10-28T17:55:42.124Z,11.74
2022-10-28T17:58:44.041Z,11.67
2022-10-28T18:01:45.711Z,11.57
2022-10-28T18:04:47.665Z,11.47
2022-10-28T18:07:49.331Z,11.33
2022-10-28T18:10:55.248Z,11.09
2022-10-28T18:13:57.076Z,10.65
2022-10-28T18:16:58.776Z,10.41
2022-10-28T18:20:02.170Z,10.43
2022-10-28T18:23:04.137Z,10.49
2022-10-28T18:26:07.981Z,10.52
2022-10-28T18:29:10.204Z,10.40
2022-10-28T18:32:12.134Z,10.15
2022-10-28T18:35:13.786Z,9.98
2022-10-28T18:38:15.628Z,9.81
2022-10-28T18:41:22.268Z,9.67
2022-10-28T18:44:31.643Z,9.54
2022-10-28T18:47:34.506Z,9.53
2022-10-28T18:50:36.136Z,9.54
2022-10-28T18:53:46.412Z,9.61
2022-10-28T18:56:49.186Z,9.70
2022-10-28T19:00:17.544Z,9.81
2022-10-28T19:03:20.608Z,9.84
2022-10-28T19:06:23.031Z,9.87
2022-10-28T19:09:24.623Z,9.87
2022-10-28T19:12:26.332Z,9.83
2022-10-28T19:15:28.120Z,9.83
2022-10-28T19:18:30.392Z,9.83
2022-10-28T19:21:32.176Z,9.78
2022-10-28T19:24:34.530Z,9.77
2022-10-28T19:27:36.189Z,9.78
2022-10-28T19:30:37.836Z,9.84
2022-10-28T19:33:39.636Z,9.97
2022-10-28T19:36:41.287Z,9.87
2022-10-28T19:39:42.893Z,9.82
2022-10-28T19:42:44.617Z,9.77
2022-10-28T19:45:46.425Z,9.69
2022-10-28T19:48:50.073Z,9.54
2022-10-28T19:51:51.681Z,9.51
2022-10-28T19:54:53.420Z,9.51
2022-10-28T19:57:55.857Z,9.45
2022-10-28T20:01:03.525Z,9.38
2022-10-28T20:04:05.642Z,9.38
2022-10-28T20:10:28.383Z,9.37
2022-10-28T20:13:30.302Z,9.30
2022-10-28T20:16:32.975Z,9.17
2022-10-28T20:19:34.753Z,9.02
2022-10-28T20:22:41.318Z,8.93
2022-10-28T20:25:51.804Z,8.87
2022-10-28T20:28:53.816Z,8.87
2022-10-28T20:31:55.557Z,8.88
2022-10-28T20:34:57.232Z,8.88
2022-10-28T20:37:59.275Z,8.90
2022-10-28T20:41:01.034Z,8.88
2022-10-28T20:44:03.112Z,8.90
2022-10-28T20:47:05.120Z,8.93
2022-10-28T20:50:07.817Z,8.97
2022-10-28T20:53:09.449Z,9.10
2022-10-28T20:56:24.058Z,9.35
2022-10-28T20:59:25.721Z,9.58
2022-10-28T21:02:27.937Z,9.64
2022-10-28T21:05:31.537Z,9.64
2022-10-28T21:08:33.174Z,9.64
2022-10-28T21:11:35.415Z,9.79
2022-10-28T21:14:37.161Z,9.89
2022-10-28T21:17:39.094Z,9.99
2022-10-28T21:20:40.763Z,10.12
2022-10-28T21:23:42.511Z,10.19
2022-10-28T21:26:47.202Z,10.27
2022-10-28T21:29:51.608Z,10.34
2022-10-28T21:32:53.922Z,10.40
2022-10-28T21:36:00.697Z,10.42
2022-10-28T21:39:02.387Z,10.38
2022-10-28T21:42:04.250Z,10.30
2022-10-28T21:45:07.732Z,10.22
2022-10-28T21:48:09.352Z,10.21
2022-10-28T21:51:14.789Z,10.25
2022-10-28T21:54:18.669Z,10.30
2022-10-28T21:57:20.569Z,10.29
2022-10-28T22:00:22.236Z,10.25
2022-10-28T22:03:23.944Z,10.23
2022-10-28T22:06:25.740Z,10.21
2022-10-28T22:09:27.302Z,10.18
2022-10-28T22:12:29.910Z,10.13
2022-10-28T22:15:31.745Z,10.09
2022-10-28T22:18:34.831Z,10.06
2022-10-28T22:21:40.391Z,10.07
2022-10-28T22:24:42.104Z,10.09
2022-10-28T22:27:45.014Z,10.12
2022-10-28T22:30:46.628Z,10.17
2022-10-28T22:33:48.550Z,10.18
2022-10-28T22:36:50.405Z,10.17
2022-10-28T22:39:52.032Z,10.13
2022-10-28T22:42:53.782Z,10.14
2022-10-28T22:45:57.042Z,10.16
2022-10-28T22:48:58.881Z,10.16
2022-10-28T22:52:00.791Z,10.09
2022-10-28T22:55:02.497Z,10.05
2022-10-28T22:58:04.188Z,10.05
2022-10-28T23:01:11.603Z,10.02
2022-10-28T23:04:13.358Z,9.99
2022-10-28T23:07:34.874Z,9.98
2022-10-28T23:10:50.737Z,9.96
2022-10-28T23:13:58.354Z,9.92
2022-10-28T23:17:00.020Z,9.81
2022-10-28T23:20:02.132Z,9.68
2022-10-28T23:23:04.191Z,9.64
2022-10-28T23:26:07.139Z,9.64
2022-10-28T23:29:08.831Z,9.64
2022-10-28T23:32:10.714Z,9.60
2022-10-28T23:35:12.350Z,9.59
2022-10-28T23:38:16.533Z,9.61
2022-10-28T23:41:20.902Z,9.59
2022-10-28T23:44:23.094Z,9.57
2022-10-28T23:47:24.701Z,9.56
2022-10-28T23:50:26.483Z,9.57
2022-10-28T23:53:34.051Z,9.55
2022-10-28T23:56:35.672Z,9.50
2022-10-28T23:59:37.401Z,9.47
